Buena, Washington
Current Conditions -  °F | °C
As of 6:53 AM on Sunday 23 Nov 2014 (Local Time) from KYKM Reporting Station
Clear Clear  
Wind Chill: 22°   Ceiling: Unl
Heat Index: 30°   Visibility: 10mi
Dew Point: 25°   Wind: 9mph
Humidity: 82%   Direction: 210°SSW
Pressure: 30.15"   Gusts: NA
Location:  46.43°N, 120.32°W
Report Text: KYKM 231453Z 21008KT 10SM CLR M01/M04 A3015 RMK AO2 SLP219 T10111039 51003
Loading
Personal Weather Stations






























Interactive Weather Map New forecast layout! Learn more

10-Day Weather Forecast

Advertisements
Track Severe Weather on mobile